WEATHER DATA

YESTERDAY
Time Temp. Dewp. Hum. Wind dir Wind speed Wind gust Bar. 1h Prec. 24h Prec.
00:03 0.2 -1 91 239 0.3 0.8 1021.6 0.0000 0.0000
00:23 -0.5 -1.6 91 0 0.3 1021.8 0.0000 0.0000
00:33 -0.5 -1.5 92 0 0.3 1021.9 0.0000 0.0000
00:43 -0.7 -1.7 92 0 0.3 1022 0.0000 0.0000
00:54 -0.7 -1.6 93 323 0.3 1.1 1022 0.0000 0.0000
01:04 -0.3 -1 94 302 0.3 0.8 1022.2 0.0000 0.0000
01:14 0 -0.7 94 303 0.3 0.8 1022.2 0.0000 0.0000
01:24 0.2 -0.6 94 0 0.8 1022.2 0.0000 0.0000
01:34 0.1 -0.7 94 0 0.8 1022.3 0.0000 0.0000
01:44 -0.1 -1 93 338 0.8 1.4 1022.4 0.0000 0.0000
01:54 -0.2 -1.1 93 348 0.8 1.4 1022.5 0.0000 0.0000
02:05 -0.2 -1.1 93 325 0.3 0.8 1022.5 0.0000 0.0000
02:14 -0.3 -1 94 0 0.8 1022.6 0.0000 0.0000
02:24 0.1 -0.7 94 270 0.3 2.5 1022.7 0.0000 0.0000
02:35 0.4 -0.4 94 270 0.3 1.4 1022.7 0.0000 0.0000
02:45 0.5 -0.3 94 270 0.3 1.1 1022.7 0.0000 0.0000
02:55 0.6 -0.2 94 270 0.3 1.1 1022.8 0.0000 0.0000
03:15 0.3 -0.5 94 270 0.3 1.1 1022.9 0.0000 0.0000
03:25 0.2 -0.6 94 0 0.8 1023 0.0000 0.0000
03:35 -0.2 -1.1 93 0 0.3 1023.1 0.0000 0.0000
03:45 -0.6 -1.5 93 0 0.3 1023.1 0.0000 0.0000
03:55 -0.8 -1.7 93 306 0.3 0.8 1023.3 0.0000 0.0000
04:08 0 -0.7 94 270 0.8 2.2 1023.4 0.3030 0.3000
04:18 0.4 -0.4 94 270 0.3 0.8 1023.4 0.3030 0.3000
04:27 0.5 -0.3 94 0 0.3 1023.4 0.4040 0.4000
04:38 0.5 -0.3 94 0 0.8 1023.5 0.4040 0.4000
04:48 0.4 -0.4 94 0 0.8 1023.5 0.4040 0.4000
04:58 0.4 -0.4 94 0 0.3 1023.5 0.4040 0.4000
05:08 0.3 -0.5 94 0 0.3 1023.7 0.1010 0.4000
05:18 0.4 -0.4 94 315 0.3 0.8 1023.6 0.0000 0.4000
05:28 0.5 -0.3 94 330 0.3 0.8 1023.6 0.0000 0.4000
05:38 0.4 -0.4 94 322 0.3 0.8 1023.6 0.0000 0.4000
05:48 0.1 -0.7 94 0 0.3 1023.8 0.0000 0.4000
05:59 0 -0.7 94 270 0.3 1.1 1023.9 0.0000 0.4000
06:08 -0.1 -0.8 94 0 0.8 1023.9 0.0000 0.4000
06:18 -0.2 -0.9 94 0 0.3 1023.9 0.0000 0.4000
06:29 -0.4 -1.1 94 0 0.3 1023.9 0.0000 0.4000
06:39 -0.5 -1.2 94 0 0.8 1024 0.0000 0.4000
06:49 0 -0.7 94 270 0.8 2.2 1024.2 0.0000 0.4000
06:59 0.1 -0.7 94 225 0.3 1.1 1024.2 0.0000 0.4000
07:09 0 -0.7 94 217 0.3 0.8 1024.4 0.0000 0.4000
07:19 -0.1 -0.8 94 225 0.3 1.4 1024.5 0.0000 0.4000
07:29 -0.1 -0.8 94 225 0.3 1.4 1024.5 0.0000 0.4000
07:40 -0.1 -0.8 94 225 0.3 0.8 1024.6 0.0000 0.4000
07:50 -0.1 -0.8 94 221 0.3 1.1 1024.6 0.0000 0.4000
07:59 -0.1 -0.8 94 225 0.8 1.4 1024.8 0.0000 0.4000
08:09 0 -0.7 94 211 0.8 1.1 1024.9 0.0000 0.4000
08:25 1 0.1 94 217 1.4 3.6 1025.1 0.3030 0.7000
08:35 1.9 1 94 295 1.1 3.3 1025.3 0.4040 0.8000
08:45 1.9 1 94 315 0.8 2.8 1025.5 0.5050 0.9000
08:55 1.6 0.7 94 215 2.2 3.9 1025.5 0.6060 1.0000
09:05 1.4 0.5 94 203 1.7 3.3 1025.4 0.6060 1.0000
09:15 1.6 0.7 94 204 1.4 2.5 1025.5 0.3030 1.0000
09:26 2.6 1.7 94 203 1.7 3.3 1025.6 0.2020 1.0000
09:45 3.7 2.8 94 223 1.4 4.7 1025.8 0.0000 1.0000
09:55 3.7 2.8 94 221 1.7 3.9 1025.9 0.0000 1.0000
10:16 3.6 2.7 94 222 2.2 4.4 1026.1 0.0000 1.0000
10:26 4 3.1 94 218 2.2 3.9 1026.1 0.0000 1.0000
10:36 4.1 3.2 94 225 2.2 4.7 1026.2 0.0000 1.0000
10:46 5.1 4.2 94 220 1.7 5.3 1026.2 0.0000 1.0000
10:56 4.8 3.8 93 215 3.6 7.2 1026.3 0.1010 1.1000
11:06 4.4 3.2 92 215 3.3 5 1026.3 0.1010 1.1000
11:17 4.5 3.5 93 213 2.2 4.4 1026.5 0.1010 1.1000
11:26 4.6 3.6 93 212 2.5 4.7 1026.5 0.1010 1.1000
11:36 4.6 3.4 92 210 2.5 5 1026.8 0.1010 1.1000
11:47 3.6 2.1 90 337 1.7 4.7 1026.9 0.2020 1.2000
11:57 2.8 1.3 90 341 2.5 5.8 1027 0.2020 1.3000
12:07 2.6 1.3 91 331 1.4 3.3 1026.9 0.2020 1.3000
12:16 3.2 2.3 94 293 0.8 2.2 1026.9 0.2020 1.3000
12:27 4.5 3.6 94 320 1.1 3.6 1026.9 0.2020 1.3000
12:37 5.1 3.8 91 292 1.4 3.9 1026.9 0.1010 1.3000
12:47 5.2 3.5 89 270 1.1 2.5 1026.8 0.1010 1.3000
12:57 5.8 3.6 86 270 1.1 2.5 1026.9 0.0000 1.3000
13:08 5.8 3.5 85 286 1.4 5 1026.9 0.0000 1.3000
13:17 6.4 3.9 84 284 1.1 4.7 1027 0.0000 1.3000
13:27 6.8 3.6 80 331 1.4 3.9 1027 0.0000 1.3000
13:38 7 3.4 78 288 1.4 4.4 1027.1 0.0000 1.3000
13:48 6.3 2.6 77 322 1.1 3.6 1027.2 0.0000 1.3000
13:58 6.3 2.8 78 332 1.7 3.9 1027.3 0.0000 1.3000
14:08 6.1 2.6 78 308 1.1 3.9 1027.4 0.0000 1.3000
14:18 6.3 3.1 80 270 1.1 5 1027.4 0.0000 1.3000
14:28 6.3 3.1 80 330 3.3 6.1 1027.4 0.0000 1.3000
14:38 6.9 3.9 81 280 1.1 3.6 1027.5 0.0000 1.3000
14:50 6.7 3.1 78 315 1.7 8.6 1027.8 0.0000 1.3000
15:00 5.1 2.1 81 332 4.7 7.8 1028 0.0000 1.3000
15:10 4 1.7 85 332 3.6 6.9 1028.2 0.0000 1.3000
15:20 3.6 1.8 88 331 3.9 7.2 1028.2 0.1010 1.4000
15:30 4.5 3.3 92 316 1.4 3.9 1028.1 0.1010 1.4000
15:38 5 2.9 86 334 3.6 8.3 1028.2 0.1010 1.4000
15:48 5.4 3.1 85 303 1.7 5.3 1028.2 0.1010 1.4000
15:59 5.7 3 83 285 1.1 3.6 1028.4 0.1010 1.4000
16:09 5.1 2.3 82 306 1.1 3.6 1028.5 0.1010 1.4000
16:18 5 2.5 84 282 1.1 3.6 1028.4 0.0000 1.4000
16:28 5.4 3.4 87 270 1.1 4.4 1028.4 0.0000 1.4000
16:39 6.2 4.2 87 225 1.1 3.3 1028.4 0.0000 1.4000
16:49 6.8 4.6 86 256 1.1 3.6 1028.4 0.0000 1.4000
16:59 7.2 4.7 84 229 1.7 4.7 1028.3 0.0000 1.4000
17:10 7.4 4.7 83 285 1.1 3.3 1028.3 0.0000 1.4000
17:19 7.4 4.5 82 288 1.1 3.9 1028.3 0.0000 1.4000
17:29 7.4 4.9 84 239 0.8 3.3 1028.4 0.0000 1.4000
17:39 7.7 4.8 82 320 0.8 2.2 1028.4 0.0000 1.4000
17:50 7.1 3.5 78 332 1.1 3.3 1028.4 0.0000 1.4000
18:00 6.5 2.6 76 334 2.5 5.8 1028.3 0.0000 1.4000
18:09 6.1 2.2 76 337 2.5 4.4 1028.4 0.0000 1.4000
18:20 5.7 2.3 79 344 1.7 3.9 1028.6 0.0000 1.4000
18:30 5.8 2.4 79 333 1.7 3.9 1028.6 0.0000 1.4000
18:40 5.6 2.3 79 279 1.1 3.6 1028.7 0.0000 1.4000
18:50 5.7 2.2 78 341 1.1 3.6 1028.7 0.0000 1.4000
19:01 5.9 2.2 77 288 1.1 4.7 1028.8 0.0000 1.4000
19:11 5.9 2.7 80 315 0.8 2.2 1028.8 0.0000 1.4000
19:20 5.8 2.4 79 298 1.1 4.4 1028.9 0.0000 1.4000
19:31 5.4 2.1 79 282 0.8 2.2 1028.9 0.0000 1.4000
19:41 5.2 2 80 297 1.1 3.9 1029 0.0000 1.4000
19:51 4.9 1.7 80 338 1.7 3.3 1029.1 0.0000 1.4000
20:01 4.5 1.7 82 340 1.4 3.3 1029.2 0.0000 1.4000
20:11 4.2 1.6 83 338 0.8 2.5 1029.3 0.0000 1.4000
20:21 3.9 1.4 84 315 0.8 1.7 1029.4 0.0000 1.4000
20:31 3.7 1.4 85 319 0.8 2.2 1029.5 0.0000 1.4000
20:41 3.4 1.1 85 315 0.3 1.1 1029.6 0.0000 1.4000
20:52 3.1 0.8 85 309 0.3 1.1 1029.6 0.0000 1.4000
21:01 2.9 0.8 86 304 0.3 1.1 1029.7 0.0000 1.4000
21:11 2.6 0.5 86 270 0.3 0.8 1029.8 0.0000 1.4000
21:22 2.4 0.5 87 0 0.3 1029.8 0.0000 1.4000
21:32 2.1 0.2 87 0 0.3 1029.9 0.0000 1.4000
21:42 1.9 0.1 88 270 0.3 0.8 1030 0.0000 1.4000
21:52 1.7 0.1 89 0 0.8 1030 0.0000 1.4000
21:59 1.8 0.3 90 317 0.8 4.4 1030.1 0.0000 1.4000
22:09 2.1 0.8 91 324 1.1 3.3 1030 0.0000 1.4000
22:20 2.1 0.6 90 309 0.3 1.7 1030.1 0.0000 1.4000
22:29 2.1 0.6 90 270 0.3 1.1 1030.1 0.0000 1.4000
22:39 1.9 0.3 89 0 1.1 1030.2 0.0000 1.4000
22:50 1.7 0.1 89 0 0.3 1030.2 0.0000 1.4000
23:00 1.4 -0.2 89 0 0.8 1030.2 0.0000 1.4000
23:10 1.3 -0.3 89 0 0.8 1030.2 0.0000 1.4000
23:19 1.2 -0.2 90 0 0.8 1030.3 0.0000 1.4000
23:30 1.1 -0.3 90 0 0.8 1030.3 0.0000 1.4000
23:40 0.9 -0.5 90 0 0.3 1030.4 0.0000 1.4000
23:49 0.8 -0.4 91 0 0.8 1030.5 0.0000 1.4000

DAY STATISTIC

2021-04-12
TEMPERATURE
AVERAGE
2.8
HIGH
7.7
17:39
LOW
-0.8
03:55
PRESSURE
AVERAGE
1026.4
HIGH
1030.5
23:49
LOW
1021.6
00:03
DEWPOINT
AVERAGE
1.2
HIGH
4.9
17:29
LOW
-1.7
00:43
HUMIDITY
AVERAGE
89
HIGH
94
01:04
LOW
76
18:00
WIND SPEED
AVERAGE
1.0
HIGH
4.7
15:00
WIND GUST
AVERAGE
2.6
HIGH
8.6
14:50
WIND DIRECTION
PREVAILING
NW
31.2%
N
5.8
NE
0.0
E
0.0
SE
0.0
S
2.2
SW
18.1
W
21.0
NW
31.2
PRECIPITATION
RAIN HOUR
0.6
RAIN DAY
1.4
TEMPERATURE (°C)
LOW
-0.8
HIGH
7.7
AVERAGE
2.8
PRESSURE (hpa)
LOW
1021.6
HIGH
1030.5
AVERAGE
1026.4
DEVICE